Terminal Aerodrome Forecast
Issued by NWS

Home | Current Version | Previous Version | Graphics & Text | Print | Product List | Glossary On
Versions: 1 2 3 4 5 6 7 8 9 10 11 12 13 14 15 16 17 18 19 20 21 22 23 24 25 26 27
537
FTUS43 KABR 230256 AAC
TAFATY
TAF AMD
KATY 230256Z 2303/2324 30007KT P6SM -SHRA VCTS FEW026 BKN090CB
      BKN120
      TEMPO 2303/2304 -TSRA BKN050CB OVC100
     FM230400 30006KT P6SM BKN200
     FM230600 30006KT P6SM SHRA BKN090
     FM230700 31006KT P6SM SHRA VCTS BKN080CB
     FM230900 34007KT P6SM SHRA BKN030
     FM231100 02007KT P6SM OVC030
     FM231400 03006KT P6SM OVC008
     FM231600 04006KT P6SM -SHRA OVC008=

USA.gov is the U.S. government's official web portal to all federal, state and local government web resources and services.